createdAt,value
2017-05-17T00:00:02.877Z,824.34
2017-05-17T00:00:07.311Z,824.36
2017-05-17T00:00:11.673Z,824.38
2017-05-17T00:00:15.988Z,824.38
2017-05-17T00:00:20.191Z,824.35
2017-05-17T00:00:24.496Z,824.35
2017-05-17T00:00:28.807Z,824.35
2017-05-17T00:00:33.007Z,824.36
2017-05-17T00:00:37.464Z,824.31
2017-05-17T00:00:41.773Z,824.31
2017-05-17T00:00:46.088Z,824.35
2017-05-17T00:00:50.522Z,824.34
2017-05-17T00:00:54.871Z,824.37
2017-05-17T00:00:59.305Z,824.33
2017-05-17T00:01:04.097Z,824.34
2017-05-17T00:01:08.524Z,824.35
2017-05-17T00:01:12.833Z,824.32
2017-05-17T00:01:17.263Z,824.33
2017-05-17T00:01:21.689Z,824.32
2017-05-17T00:01:26.004Z,824.31
2017-05-17T00:01:30.435Z,824.3
2017-05-17T00:01:34.863Z,824.33
2017-05-17T00:01:39.291Z,824.33
2017-05-17T00:01:43.722Z,824.32
2017-05-17T00:01:48.156Z,824.3
2017-05-17T00:01:52.462Z,824.29
2017-05-17T00:01:56.889Z,824.3
2017-05-17T00:02:01.321Z,824.31
2017-05-17T00:02:05.885Z,824.34
2017-05-17T00:02:10.091Z,824.32
2017-05-17T00:02:14.529Z,824.33
2017-05-17T00:02:18.726Z,824.32
2017-05-17T00:02:23.208Z,824.34
2017-05-17T00:02:27.514Z,824.27
2017-05-17T00:02:31.824Z,824.29
2017-05-17T00:02:36.250Z,824.3
2017-05-17T00:02:40.675Z,824.32
2017-05-17T00:02:45.110Z,824.24
2017-05-17T00:02:49.543Z,824.27
2017-05-17T00:02:53.979Z,824.32
2017-05-17T00:02:58.412Z,824.28
2017-05-17T00:03:02.848Z,824.25
2017-05-17T00:03:07.283Z,824.29
2017-05-17T00:03:11.715Z,824.3
2017-05-17T00:03:15.792Z,824.3
2017-05-17T00:03:20.113Z,824.31
2017-05-17T00:03:24.553Z,824.31
2017-05-17T00:03:28.863Z,824.3
2017-05-17T00:03:33.297Z,824.28
2017-05-17T00:03:37.724Z,824.32
2017-05-17T00:03:42.155Z,824.27
2017-05-17T00:03:46.586Z,824.26
2017-05-17T00:03:51.025Z,824.25
2017-05-17T00:03:55.454Z,824.27
2017-05-17T00:03:59.941Z,824.25
2017-05-17T00:04:04.371Z,824.27
2017-05-17T00:04:08.571Z,824.28
2017-05-17T00:04:13.021Z,824.26
2017-05-17T00:04:17.336Z,824.25
2017-05-17T00:04:21.772Z,824.26
2017-05-17T00:04:26.207Z,824.25
2017-05-17T00:04:30.637Z,824.26
2017-05-17T00:04:34.943Z,824.25
2017-05-17T00:04:39.365Z,824.2
2017-05-17T00:04:43.795Z,824.21
2017-05-17T00:04:48.236Z,824.23
2017-05-17T00:04:52.661Z,824.23
2017-05-17T00:04:57.100Z,824.22
2017-05-17T00:05:01.419Z,824.18
2017-05-17T00:05:06.146Z,824.22
2017-05-17T00:05:10.457Z,824.18
2017-05-17T00:05:14.889Z,824.22
2017-05-17T00:05:19.092Z,824.18
2017-05-17T00:05:23.522Z,824.17
2017-05-17T00:05:27.831Z,824.17
2017-05-17T00:05:32.256Z,824.16
2017-05-17T00:05:36.572Z,824.15
2017-05-17T00:05:40.994Z,824.13
2017-05-17T00:05:45.427Z,824.14
2017-05-17T00:05:49.915Z,824.12
2017-05-17T00:05:54.347Z,824.11
2017-05-17T00:05:58.663Z,824.13
2017-05-17T00:06:03.142Z,824.1
2017-05-17T00:06:07.567Z,824.08
2017-05-17T00:06:11.880Z,824.11
2017-05-17T00:06:16.077Z,824.1
2017-05-17T00:06:20.509Z,824.05
2017-05-17T00:06:24.934Z,824.05
2017-05-17T00:06:29.365Z,824.02
2017-05-17T00:06:33.687Z,824.03
2017-05-17T00:06:38.113Z,824.05
2017-05-17T00:06:42.547Z,824.07
2017-05-17T00:06:47.031Z,824.04
2017-05-17T00:06:51.122Z,824.07
2017-05-17T00:06:55.565Z,824.02
2017-05-17T00:06:59.995Z,824.05
2017-05-17T00:07:04.628Z,823.97
2017-05-17T00:07:09.061Z,824
2017-05-17T00:07:13.544Z,823.99
2017-05-17T00:07:17.859Z,823.99
2017-05-17T00:07:22.291Z,823.93
2017-05-17T00:07:26.777Z,823.97
2017-05-17T00:07:31.207Z,823.98
2017-05-17T00:07:35.641Z,823.95
2017-05-17T00:07:40.082Z,823.91
2017-05-17T00:07:44.396Z,823.96
2017-05-17T00:07:48.833Z,823.94
2017-05-17T00:07:53.268Z,823.91
2017-05-17T00:07:57.709Z,823.92
2017-05-17T00:08:02.139Z,823.87
2017-05-17T00:08:06.451Z,823.87
2017-05-17T00:08:10.883Z,823.84
2017-05-17T00:08:15.313Z,823.85
2017-05-17T00:08:19.746Z,823.88
2017-05-17T00:08:24.070Z,823.88
2017-05-17T00:08:28.509Z,823.82
2017-05-17T00:08:32.947Z,823.81
2017-05-17T00:08:37.383Z,823.83
2017-05-17T00:08:41.690Z,823.82
2017-05-17T00:08:45.996Z,823.79
2017-05-17T00:08:50.428Z,823.78
2017-05-17T00:08:54.868Z,823.79
2017-05-17T00:08:59.294Z,823.78
2017-05-17T00:09:03.787Z,823.79
2017-05-17T00:09:08.102Z,823.77
2017-05-17T00:09:12.407Z,823.75
2017-05-17T00:09:16.849Z,823.74
2017-05-17T00:09:21.282Z,823.69
2017-05-17T00:09:25.717Z,823.7
2017-05-17T00:09:30.148Z,823.71
2017-05-17T00:09:34.594Z,823.69
2017-05-17T00:09:38.900Z,823.69
2017-05-17T00:09:43.213Z,823.65
2017-05-17T00:09:47.642Z,823.67
2017-05-17T00:09:52.075Z,823.63
2017-05-17T00:09:56.391Z,823.64
2017-05-17T00:10:00.824Z,823.58
2017-05-17T00:10:05.141Z,823.61
2017-05-17T00:10:09.449Z,823.6
2017-05-17T00:10:13.879Z,823.59
2017-05-17T00:10:18.072Z,823.58
2017-05-17T00:10:22.500Z,823.56
2017-05-17T00:10:26.806Z,823.52
2017-05-17T00:10:31.254Z,823.55
2017-05-17T00:10:35.611Z,823.53
2017-05-17T00:10:40.039Z,823.51
2017-05-17T00:10:44.472Z,823.5
2017-05-17T00:10:48.901Z,823.48
2017-05-17T00:10:53.331Z,823.48
2017-05-17T00:10:57.756Z,823.44
2017-05-17T00:11:02.198Z,823.43
2017-05-17T00:11:06.627Z,823.41
2017-05-17T00:11:11.060Z,823.42
2017-05-17T00:11:15.499Z,823.39
2017-05-17T00:11:19.818Z,823.39
2017-05-17T00:11:24.251Z,823.39
2017-05-17T00:11:28.615Z,823.36
2017-05-17T00:11:33.046Z,823.36
2017-05-17T00:11:37.385Z,823.38
2017-05-17T00:11:41.863Z,823.34
2017-05-17T00:11:46.290Z,823.3
2017-05-17T00:11:50.609Z,823.29
2017-05-17T00:11:55.038Z,823.27
2017-05-17T00:11:59.523Z,823.28
2017-05-17T00:12:04.052Z,823.28
2017-05-17T00:12:08.128Z,823.24
2017-05-17T00:12:12.443Z,823.25
2017-05-17T00:12:16.640Z,823.22
2017-05-17T00:12:21.073Z,823.19
2017-05-17T00:12:25.386Z,823.17
2017-05-17T00:12:29.701Z,823.18
2017-05-17T00:12:34.135Z,823.17
2017-05-17T00:12:38.449Z,823.1
2017-05-17T00:12:42.884Z,823.15
2017-05-17T00:12:47.320Z,823.1
2017-05-17T00:12:51.748Z,823.09
2017-05-17T00:12:56.187Z,823.08
2017-05-17T00:13:00.503Z,823.07
2017-05-17T00:13:04.828Z,823.06
2017-05-17T00:13:09.192Z,823.07
2017-05-17T00:13:13.630Z,823.03
2017-05-17T00:13:18.061Z,822.99
2017-05-17T00:13:22.376Z,822.95
2017-05-17T00:13:26.756Z,822.93
2017-05-17T00:13:31.196Z,822.95
2017-05-17T00:13:35.631Z,822.98
2017-05-17T00:13:40.066Z,822.95
2017-05-17T00:13:44.497Z,822.96
2017-05-17T00:13:48.930Z,822.94
2017-05-17T00:13:53.376Z,822.92
2017-05-17T00:13:57.582Z,822.92
2017-05-17T00:14:02.012Z,822.88
2017-05-17T00:14:06.327Z,822.86
2017-05-17T00:14:10.757Z,822.87
2017-05-17T00:14:15.196Z,822.87
2017-05-17T00:14:19.683Z,822.87
2017-05-17T00:14:24.010Z,822.78
2017-05-17T00:14:28.437Z,822.77
2017-05-17T00:14:32.878Z,822.83
2017-05-17T00:14:37.318Z,822.81
2017-05-17T00:14:41.516Z,822.8
2017-05-17T00:14:45.959Z,822.81
2017-05-17T00:14:50.288Z,822.77
2017-05-17T00:14:54.743Z,822.74
2017-05-17T00:14:59.180Z,822.75
2017-05-17T00:15:03.810Z,822.75
2017-05-17T00:15:08.240Z,822.73
2017-05-17T00:15:12.684Z,822.68
2017-05-17T00:15:17.121Z,822.68
2017-05-17T00:15:21.556Z,822.68
2017-05-17T00:15:25.998Z,822.67
2017-05-17T00:15:30.316Z,822.67
2017-05-17T00:15:34.742Z,822.69
2017-05-17T00:15:39.174Z,822.65
2017-05-17T00:15:43.681Z,822.64
2017-05-17T00:15:48.111Z,822.64
2017-05-17T00:15:52.549Z,822.63
2017-05-17T00:15:56.998Z,822.61
2017-05-17T00:16:01.313Z,822.63
2017-05-17T00:16:05.755Z,822.62
2017-05-17T00:16:10.188Z,822.6
2017-05-17T00:16:14.617Z,822.59
2017-05-17T00:16:18.812Z,822.59
2017-05-17T00:16:23.246Z,822.58
2017-05-17T00:16:27.554Z,822.57
2017-05-17T00:16:31.985Z,822.54
2017-05-17T00:16:36.303Z,822.58
2017-05-17T00:16:40.733Z,822.59
2017-05-17T00:16:45.168Z,822.55
2017-05-17T00:16:49.602Z,822.53
2017-05-17T00:16:53.691Z,822.51
2017-05-17T00:16:58.010Z,822.52
2017-05-17T00:17:02.324Z,822.53
2017-05-17T00:17:06.645Z,822.5
2017-05-17T00:17:10.835Z,822.51
2017-05-17T00:17:15.261Z,822.52
2017-05-17T00:17:19.572Z,822.51
2017-05-17T00:17:24.065Z,822.5
2017-05-17T00:17:28.494Z,822.5
2017-05-17T00:17:32.933Z,822.5
2017-05-17T00:17:37.242Z,822.49
2017-05-17T00:17:41.676Z,822.5
2017-05-17T00:17:46.116Z,822.46
2017-05-17T00:17:50.545Z,822.48
2017-05-17T00:17:54.972Z,822.46
2017-05-17T00:17:59.410Z,822.41
2017-05-17T00:18:04.093Z,822.44
2017-05-17T00:18:08.522Z,822.43
2017-05-17T00:18:12.958Z,822.42
2017-05-17T00:18:17.280Z,822.37
2017-05-17T00:18:21.759Z,822.35
2017-05-17T00:18:26.077Z,822.38
2017-05-17T00:18:30.504Z,822.39
2017-05-17T00:18:34.821Z,822.41
2017-05-17T00:18:39.143Z,822.37
2017-05-17T00:18:43.461Z,822.37
2017-05-17T00:18:47.889Z,822.37
2017-05-17T00:18:52.321Z,822.34
2017-05-17T00:18:56.769Z,822.34
2017-05-17T00:19:01.197Z,822.32
2017-05-17T00:19:05.626Z,822.33
2017-05-17T00:19:10.067Z,822.33
2017-05-17T00:19:14.503Z,822.34
2017-05-17T00:19:18.824Z,822.31
2017-05-17T00:19:23.321Z,822.29
2017-05-17T00:19:27.637Z,822.31
2017-05-17T00:19:32.074Z,822.32
2017-05-17T00:19:36.509Z,822.3
2017-05-17T00:19:40.943Z,822.31
2017-05-17T00:19:45.377Z,822.32
2017-05-17T00:19:49.802Z,822.29
2017-05-17T00:19:54.179Z,822.27
2017-05-17T00:19:58.609Z,822.27
2017-05-17T00:20:03.238Z,822.27
2017-05-17T00:20:07.677Z,822.25
2017-05-17T00:20:11.992Z,822.22
2017-05-17T00:20:16.419Z,822.24
2017-05-17T00:20:20.843Z,822.19
2017-05-17T00:20:25.155Z,822.22
2017-05-17T00:20:29.584Z,822.16
2017-05-17T00:20:33.895Z,822.21
2017-05-17T00:20:38.327Z,822.22
2017-05-17T00:20:42.755Z,822.23
2017-05-17T00:20:47.198Z,822.22
2017-05-17T00:20:51.632Z,822.21
2017-05-17T00:20:56.053Z,822.21
2017-05-17T00:21:00.374Z,822.18
2017-05-17T00:21:04.808Z,822.18
2017-05-17T00:21:09.124Z,822.2
2017-05-17T00:21:13.550Z,822.17
2017-05-17T00:21:17.983Z,822.16
2017-05-17T00:21:22.459Z,822.17
2017-05-17T00:21:26.771Z,822.12
2017-05-17T00:21:31.206Z,822.11
2017-05-17T00:21:35.583Z,822.1
2017-05-17T00:21:39.890Z,822.11
2017-05-17T00:21:44.324Z,822.13
2017-05-17T00:21:48.646Z,822.15
2017-05-17T00:21:52.962Z,822.15
2017-05-17T00:21:57.439Z,822.11
2017-05-17T00:22:01.917Z,822.17
2017-05-17T00:22:06.230Z,822.12
2017-05-17T00:22:10.666Z,822.12
2017-05-17T00:22:14.975Z,822.04
2017-05-17T00:22:19.402Z,822.11
2017-05-17T00:22:23.598Z,822.12
2017-05-17T00:22:28.026Z,822.12
2017-05-17T00:22:32.459Z,822.11
2017-05-17T00:22:36.894Z,822.06
2017-05-17T00:22:41.328Z,822.06
2017-05-17T00:22:45.772Z,822.05
2017-05-17T00:22:50.091Z,822.1
2017-05-17T00:22:54.537Z,822.08
2017-05-17T00:22:58.969Z,822.1
2017-05-17T00:23:03.397Z,822.1
2017-05-17T00:23:07.707Z,822.07
2017-05-17T00:23:12.030Z,822.07
2017-05-17T00:23:16.512Z,822.08
2017-05-17T00:23:20.699Z,822.04
2017-05-17T00:23:25.129Z,822.06
2017-05-17T00:23:29.568Z,822.07
2017-05-17T00:23:33.643Z,822.08
2017-05-17T00:23:37.954Z,822.07
2017-05-17T00:23:42.149Z,822.03
2017-05-17T00:23:46.591Z,821.99
2017-05-17T00:23:50.905Z,822
2017-05-17T00:23:55.330Z,822.05
2017-05-17T00:23:59.764Z,822.07
2017-05-17T00:24:04.197Z,822.06
2017-05-17T00:24:08.391Z,822.05
2017-05-17T00:24:12.812Z,822.05
2017-05-17T00:24:17.244Z,822.04
2017-05-17T00:24:21.694Z,822.07
2017-05-17T00:24:25.999Z,822.03
2017-05-17T00:24:30.429Z,822.06
2017-05-17T00:24:34.858Z,822.07
2017-05-17T00:24:39.287Z,822.04
2017-05-17T00:24:43.723Z,822.01
2017-05-17T00:24:48.211Z,822.06
2017-05-17T00:24:52.640Z,822.03
2017-05-17T00:24:57.084Z,822.02
2017-05-17T00:25:01.527Z,821.99
2017-05-17T00:25:06.213Z,822.02
2017-05-17T00:25:10.291Z,822.04
2017-05-17T00:25:14.614Z,822.06
2017-05-17T00:25:18.807Z,822.03
2017-05-17T00:25:23.126Z,822
2017-05-17T00:25:27.440Z,822.03
2017-05-17T00:25:31.880Z,822
2017-05-17T00:25:36.311Z,821.98
2017-05-17T00:25:40.619Z,821.94
2017-05-17T00:25:45.052Z,821.96
2017-05-17T00:25:49.533Z,822.02
2017-05-17T00:25:53.963Z,822.01
2017-05-17T00:25:58.399Z,822
2017-05-17T00:26:02.863Z,821.99
2017-05-17T00:26:07.291Z,821.97
2017-05-17T00:26:11.368Z,821.98
2017-05-17T00:26:15.854Z,821.96
2017-05-17T00:26:20.165Z,821.95
2017-05-17T00:26:24.368Z,821.93
2017-05-17T00:26:28.794Z,821.93
2017-05-17T00:26:32.994Z,821.98
2017-05-17T00:26:37.419Z,822
2017-05-17T00:26:41.743Z,821.96
2017-05-17T00:26:46.191Z,821.99
2017-05-17T00:26:50.616Z,821.92
2017-05-17T00:26:55.054Z,821.88
2017-05-17T00:26:59.488Z,821.92
2017-05-17T00:27:04.169Z,821.94
2017-05-17T00:27:08.478Z,821.94
2017-05-17T00:27:12.906Z,821.92
2017-05-17T00:27:17.229Z,821.93
2017-05-17T00:27:21.659Z,821.9
2017-05-17T00:27:25.731Z,821.94
2017-05-17T00:27:30.165Z,821.88
2017-05-17T00:27:34.612Z,821.88
2017-05-17T00:27:39.053Z,821.9
2017-05-17T00:27:43.490Z,821.91
2017-05-17T00:27:47.856Z,821.91
2017-05-17T00:27:52.286Z,821.86
2017-05-17T00:27:56.726Z,821.91
2017-05-17T00:28:01.151Z,821.89
2017-05-17T00:28:05.812Z,821.87
2017-05-17T00:28:10.134Z,821.89
2017-05-17T00:28:14.587Z,821.89
2017-05-17T00:28:18.901Z,821.86
2017-05-17T00:28:23.328Z,821.86
2017-05-17T00:28:27.770Z,821.84
2017-05-17T00:28:32.205Z,821.88
2017-05-17T00:28:36.640Z,821.85
2017-05-17T00:28:41.141Z,821.83
2017-05-17T00:28:45.451Z,821.83
2017-05-17T00:28:49.890Z,821.87
2017-05-17T00:28:54.371Z,821.86
2017-05-17T00:28:58.797Z,821.79
2017-05-17T00:29:03.335Z,821.84
2017-05-17T00:29:07.827Z,821.84
2017-05-17T00:29:12.136Z,821.85
2017-05-17T00:29:16.322Z,821.81
2017-05-17T00:29:20.763Z,821.86
2017-05-17T00:29:25.201Z,821.86
2017-05-17T00:29:29.631Z,821.84
2017-05-17T00:29:33.831Z,821.83
2017-05-17T00:29:38.259Z,821.81
2017-05-17T00:29:42.689Z,821.83
2017-05-17T00:29:47.007Z,821.83
2017-05-17T00:29:51.494Z,821.85
2017-05-17T00:29:55.832Z,821.81
2017-05-17T00:30:00.258Z,821.79
2017-05-17T00:30:04.628Z,821.86
2017-05-17T00:30:08.828Z,821.86
2017-05-17T00:30:13.255Z,821.86
2017-05-17T00:30:17.677Z,821.85
2017-05-17T00:30:21.865Z,821.84
2017-05-17T00:30:26.172Z,821.86
2017-05-17T00:30:30.477Z,821.85
2017-05-17T00:30:34.787Z,821.83
2017-05-17T00:30:39.222Z,821.83
2017-05-17T00:30:43.646Z,821.8
2017-05-17T00:30:47.969Z,821.8
2017-05-17T00:30:52.396Z,821.85
2017-05-17T00:30:56.823Z,821.83
2017-05-17T00:31:01.248Z,821.85
2017-05-17T00:31:05.688Z,821.84
2017-05-17T00:31:10.008Z,821.84
2017-05-17T00:31:14.451Z,821.83
2017-05-17T00:31:18.878Z,821.82
2017-05-17T00:31:23.307Z,821.8
2017-05-17T00:31:27.619Z,821.87
2017-05-17T00:31:32.048Z,821.88
2017-05-17T00:31:36.478Z,821.85
2017-05-17T00:31:40.905Z,821.86
2017-05-17T00:31:45.334Z,821.89
2017-05-17T00:31:49.772Z,821.86
2017-05-17T00:31:54.201Z,821.86
2017-05-17T00:31:58.459Z,821.92
2017-05-17T00:32:02.936Z,821.86
2017-05-17T00:32:07.014Z,821.88
2017-05-17T00:32:11.325Z,821.91
2017-05-17T00:32:15.764Z,821.91
2017-05-17T00:32:20.186Z,821.94
2017-05-17T00:32:24.614Z,821.91
2017-05-17T00:32:29.050Z,821.96
2017-05-17T00:32:33.497Z,821.95
2017-05-17T00:32:37.930Z,821.93
2017-05-17T00:32:42.372Z,821.92
2017-05-17T00:32:46.570Z,821.93
2017-05-17T00:32:51.002Z,821.98
2017-05-17T00:32:55.195Z,821.96
2017-05-17T00:32:59.515Z,821.89
2017-05-17T00:33:04.243Z,821.91
2017-05-17T00:33:08.565Z,822
2017-05-17T00:33:13.011Z,821.97
2017-05-17T00:33:17.324Z,822.03
2017-05-17T00:33:21.751Z,822.01
2017-05-17T00:33:26.181Z,822.03
2017-05-17T00:33:30.665Z,822.02
2017-05-17T00:33:35.099Z,822.04
2017-05-17T00:33:39.420Z,822.04
2017-05-17T00:33:43.862Z,822.04
2017-05-17T00:33:48.293Z,822.07
2017-05-17T00:33:52.490Z,822.07
2017-05-17T00:33:56.934Z,822.07
2017-05-17T00:34:01.250Z,822.05
2017-05-17T00:34:05.833Z,822.1
2017-05-17T00:34:10.145Z,822.08
2017-05-17T00:34:14.467Z,822.1
2017-05-17T00:34:18.775Z,822.03
2017-05-17T00:34:23.209Z,822.09
2017-05-17T00:34:27.646Z,822.09
2017-05-17T00:34:32.080Z,822.06
2017-05-17T00:34:36.507Z,822.09
2017-05-17T00:34:40.935Z,822.14
2017-05-17T00:34:45.239Z,822.15
2017-05-17T00:34:49.559Z,822.11
2017-05-17T00:34:54.053Z,822.17
2017-05-17T00:34:58.479Z,822.15
2017-05-17T00:35:03.013Z,822.19
2017-05-17T00:35:07.339Z,822.2
2017-05-17T00:35:11.644Z,822.21
2017-05-17T00:35:15.957Z,822.21
2017-05-17T00:35:20.275Z,822.21
2017-05-17T00:35:24.581Z,822.19
2017-05-17T00:35:29.007Z,822.22
2017-05-17T00:35:33.431Z,822.22
2017-05-17T00:35:37.857Z,822.22
2017-05-17T00:35:42.287Z,822.25
2017-05-17T00:35:46.601Z,822.24
2017-05-17T00:35:51.031Z,822.24
2017-05-17T00:35:55.467Z,822.26
2017-05-17T00:35:59.839Z,822.27
2017-05-17T00:36:04.274Z,822.26
2017-05-17T00:36:08.465Z,822.3
2017-05-17T00:36:12.785Z,822.27
2017-05-17T00:36:17.220Z,822.31
2017-05-17T00:36:21.643Z,822.31
2017-05-17T00:36:25.957Z,822.33
2017-05-17T00:36:30.385Z,822.23
2017-05-17T00:36:34.715Z,822.26
2017-05-17T00:36:39.155Z,822.26
2017-05-17T00:36:43.587Z,822.34
2017-05-17T00:36:48.055Z,822.31
2017-05-17T00:36:52.494Z,822.35
2017-05-17T00:36:56.930Z,822.34
2017-05-17T00:37:01.253Z,822.34
2017-05-17T00:37:05.758Z,822.34
2017-05-17T00:37:10.188Z,822.34
2017-05-17T00:37:14.617Z,822.32
2017-05-17T00:37:18.932Z,822.35
2017-05-17T00:37:23.365Z,822.35
2017-05-17T00:37:27.687Z,822.36
2017-05-17T00:37:32.120Z,822.38
2017-05-17T00:37:36.429Z,822.36
2017-05-17T00:37:40.853Z,822.37
2017-05-17T00:37:45.292Z,822.38
2017-05-17T00:37:49.716Z,822.41
2017-05-17T00:37:54.051Z,822.41
2017-05-17T00:37:58.481Z,822.39
2017-05-17T00:38:02.918Z,822.41
2017-05-17T00:38:07.113Z,822.4
2017-05-17T00:38:11.431Z,822.41
2017-05-17T00:38:15.884Z,822.4
2017-05-17T00:38:20.195Z,822.41
2017-05-17T00:38:24.515Z,822.41
2017-05-17T00:38:28.715Z,822.41
2017-05-17T00:38:33.145Z,822.38
2017-05-17T00:38:37.568Z,822.4
2017-05-17T00:38:42.010Z,822.39
2017-05-17T00:38:46.439Z,822.4
2017-05-17T00:38:50.871Z,822.39
2017-05-17T00:38:55.358Z,822.44
2017-05-17T00:38:59.676Z,822.42
2017-05-17T00:39:04.113Z,822.44
2017-05-17T00:39:08.545Z,822.42
2017-05-17T00:39:12.992Z,822.44
2017-05-17T00:39:17.418Z,822.45
2017-05-17T00:39:21.850Z,822.41
2017-05-17T00:39:26.283Z,822.46
2017-05-17T00:39:30.722Z,822.46
2017-05-17T00:39:35.158Z,822.45
2017-05-17T00:39:39.593Z,822.47
2017-05-17T00:39:44.025Z,822.45
2017-05-17T00:39:48.478Z,822.48
2017-05-17T00:39:52.914Z,822.44
2017-05-17T00:39:57.394Z,822.45
2017-05-17T00:40:02.065Z,822.47
2017-05-17T00:40:06.399Z,822.44
2017-05-17T00:40:10.718Z,822.46
2017-05-17T00:40:15.141Z,822.48
2017-05-17T00:40:19.331Z,822.47
2017-05-17T00:40:23.753Z,822.44
2017-05-17T00:40:28.065Z,822.48
2017-05-17T00:40:32.368Z,822.51
2017-05-17T00:40:36.676Z,822.46
2017-05-17T00:40:41.039Z,822.45
2017-05-17T00:40:45.464Z,822.46
2017-05-17T00:40:49.889Z,822.49
2017-05-17T00:40:54.207Z,822.48
2017-05-17T00:40:58.629Z,822.48
2017-05-17T00:41:03.058Z,822.47
2017-05-17T00:41:07.496Z,822.48
2017-05-17T00:41:11.808Z,822.46
2017-05-17T00:41:16.238Z,822.45
2017-05-17T00:41:20.666Z,822.51
2017-05-17T00:41:25.094Z,822.48
2017-05-17T00:41:29.527Z,822.48
2017-05-17T00:41:33.956Z,822.45
2017-05-17T00:41:38.387Z,822.44
2017-05-17T00:41:42.814Z,822.46
2017-05-17T00:41:47.135Z,822.5
2017-05-17T00:41:51.574Z,822.5
2017-05-17T00:41:55.892Z,822.49
2017-05-17T00:42:00.247Z,822.5
2017-05-17T00:42:04.784Z,822.52
2017-05-17T00:42:08.862Z,822.49
2017-05-17T00:42:13.291Z,822.47
2017-05-17T00:42:17.732Z,822.48
2017-05-17T00:42:22.158Z,822.45
2017-05-17T00:42:26.585Z,822.46
2017-05-17T00:42:31.019Z,822.49
2017-05-17T00:42:35.451Z,822.48
2017-05-17T00:42:39.881Z,822.52
2017-05-17T00:42:44.370Z,822.52
2017-05-17T00:42:48.807Z,822.5
2017-05-17T00:42:53.247Z,822.53
2017-05-17T00:42:57.678Z,822.53
2017-05-17T00:43:02.242Z,822.52
2017-05-17T00:43:06.676Z,822.53
2017-05-17T00:43:10.867Z,822.54
2017-05-17T00:43:15.296Z,822.55
2017-05-17T00:43:19.612Z,822.55
2017-05-17T00:43:24.039Z,822.54
2017-05-17T00:43:28.356Z,822.56
2017-05-17T00:43:32.786Z,822.57
2017-05-17T00:43:37.224Z,822.55
2017-05-17T00:43:41.653Z,822.53
2017-05-17T00:43:46.098Z,822.54
2017-05-17T00:43:50.599Z,822.53
2017-05-17T00:43:54.563Z,822.56
2017-05-17T00:43:59.054Z,822.58
2017-05-17T00:44:03.413Z,822.57
2017-05-17T00:44:07.722Z,822.55
2017-05-17T00:44:11.917Z,822.56
2017-05-17T00:44:16.233Z,822.53
2017-05-17T00:44:20.541Z,822.59
2017-05-17T00:44:24.972Z,822.52
2017-05-17T00:44:29.417Z,822.54
2017-05-17T00:44:33.906Z,822.56
2017-05-17T00:44:38.340Z,822.56
2017-05-17T00:44:42.778Z,822.59
2017-05-17T00:44:47.258Z,822.6
2017-05-17T00:44:51.618Z,822.55
2017-05-17T00:44:56.055Z,822.54
2017-05-17T00:45:00.486Z,822.57
2017-05-17T00:45:04.803Z,822.59
2017-05-17T00:45:09.237Z,822.51
2017-05-17T00:45:13.551Z,822.62
2017-05-17T00:45:17.972Z,822.62
2017-05-17T00:45:22.297Z,822.62
2017-05-17T00:45:26.608Z,822.58
2017-05-17T00:45:31.033Z,822.58
2017-05-17T00:45:35.463Z,822.6
2017-05-17T00:45:39.897Z,822.64
2017-05-17T00:45:44.212Z,822.61
2017-05-17T00:45:48.636Z,822.62
2017-05-17T00:45:53.069Z,822.6
2017-05-17T00:45:57.496Z,822.62
2017-05-17T00:46:01.804Z,822.61
2017-05-17T00:46:06.174Z,822.59
2017-05-17T00:46:10.383Z,822.62
2017-05-17T00:46:14.698Z,822.58
2017-05-17T00:46:19.127Z,822.57
2017-05-17T00:46:23.559Z,822.61
2017-05-17T00:46:27.989Z,822.63
2017-05-17T00:46:32.415Z,822.61
2017-05-17T00:46:36.493Z,822.62
2017-05-17T00:46:40.921Z,822.63
2017-05-17T00:46:45.350Z,822.57
2017-05-17T00:46:49.781Z,822.61
2017-05-17T00:46:54.096Z,822.62
2017-05-17T00:46:58.527Z,822.57
2017-05-17T00:47:02.955Z,822.59
2017-05-17T00:47:07.391Z,822.61
2017-05-17T00:47:11.879Z,822.59
2017-05-17T00:47:16.308Z,822.62
2017-05-17T00:47:20.797Z,822.58
2017-05-17T00:47:25.232Z,822.6
2017-05-17T00:47:29.662Z,822.6
2017-05-17T00:47:33.852Z,822.62
2017-05-17T00:47:38.282Z,822.59
2017-05-17T00:47:42.486Z,822.58
2017-05-17T00:47:46.978Z,822.6
2017-05-17T00:47:51.410Z,822.58
2017-05-17T00:47:55.853Z,822.57
2017-05-17T00:48:00.183Z,822.58
2017-05-17T00:48:04.613Z,822.54
2017-05-17T00:48:09.041Z,822.58
2017-05-17T00:48:13.469Z,822.56
2017-05-17T00:48:17.785Z,822.6
2017-05-17T00:48:22.103Z,822.6
2017-05-17T00:48:26.542Z,822.58
2017-05-17T00:48:30.983Z,822.59
2017-05-17T00:48:35.461Z,822.56
2017-05-17T00:48:39.894Z,822.6
2017-05-17T00:48:44.330Z,822.53
2017-05-17T00:48:48.814Z,822.57
2017-05-17T00:48:53.242Z,822.58
2017-05-17T00:48:57.679Z,822.57
2017-05-17T00:49:01.997Z,822.56
2017-05-17T00:49:06.425Z,822.54
2017-05-17T00:49:10.861Z,822.53
2017-05-17T00:49:15.179Z,822.49
2017-05-17T00:49:19.612Z,822.5
2017-05-17T00:49:24.048Z,822.49
2017-05-17T00:49:28.474Z,822.56
2017-05-17T00:49:32.916Z,822.54
2017-05-17T00:49:37.341Z,822.53
2017-05-17T00:49:41.780Z,822.54
2017-05-17T00:49:46.208Z,822.56
2017-05-17T00:49:50.639Z,822.55
2017-05-17T00:49:55.087Z,822.5
2017-05-17T00:49:59.517Z,822.53
2017-05-17T00:50:03.949Z,822.53
2017-05-17T00:50:08.268Z,822.51
2017-05-17T00:50:12.744Z,822.56
2017-05-17T00:50:17.055Z,822.53
2017-05-17T00:50:21.364Z,822.53
2017-05-17T00:50:25.795Z,822.53
2017-05-17T00:50:30.281Z,822.45
2017-05-17T00:50:34.706Z,822.48
2017-05-17T00:50:39.136Z,822.52
2017-05-17T00:50:43.636Z,822.45
2017-05-17T00:50:48.085Z,822.5
2017-05-17T00:50:52.514Z,822.49
2017-05-17T00:50:56.941Z,822.5
2017-05-17T00:51:01.371Z,822.51
2017-05-17T00:51:05.938Z,822.47
2017-05-17T00:51:10.131Z,822.51
2017-05-17T00:51:14.562Z,822.46
2017-05-17T00:51:18.902Z,822.48
2017-05-17T00:51:23.335Z,822.44
2017-05-17T00:51:27.649Z,822.45
2017-05-17T00:51:32.087Z,822.41
2017-05-17T00:51:36.517Z,822.48
2017-05-17T00:51:40.948Z,822.47
2017-05-17T00:51:45.379Z,822.45
2017-05-17T00:51:49.806Z,822.41
2017-05-17T00:51:54.233Z,822.4
2017-05-17T00:51:58.662Z,822.42
2017-05-17T00:52:03.153Z,822.44
2017-05-17T00:52:07.359Z,822.45
2017-05-17T00:52:11.798Z,822.41
2017-05-17T00:52:16.233Z,822.4
2017-05-17T00:52:20.656Z,822.42
2017-05-17T00:52:25.089Z,822.42
2017-05-17T00:52:29.519Z,822.42
2017-05-17T00:52:34.003Z,822.46
2017-05-17T00:52:38.434Z,822.42
2017-05-17T00:52:42.869Z,822.41
2017-05-17T00:52:47.301Z,822.39
2017-05-17T00:52:51.749Z,822.4
2017-05-17T00:52:55.941Z,822.38
2017-05-17T00:53:00.368Z,822.41
2017-05-17T00:53:04.853Z,822.34
2017-05-17T00:53:09.227Z,822.33
2017-05-17T00:53:13.656Z,822.4
2017-05-17T00:53:18.089Z,822.4
2017-05-17T00:53:22.447Z,822.37
2017-05-17T00:53:26.876Z,822.35
2017-05-17T00:53:31.308Z,822.38
2017-05-17T00:53:35.795Z,822.39
2017-05-17T00:53:40.223Z,822.36
2017-05-17T00:53:44.667Z,822.37
2017-05-17T00:53:49.099Z,822.33
2017-05-17T00:53:53.289Z,822.32
2017-05-17T00:53:57.743Z,822.33
2017-05-17T00:54:02.181Z,822.37
2017-05-17T00:54:06.491Z,822.36
2017-05-17T00:54:10.688Z,822.38
2017-05-17T00:54:15.008Z,822.35
2017-05-17T00:54:19.339Z,822.36
2017-05-17T00:54:23.659Z,822.37
2017-05-17T00:54:27.975Z,822.33
2017-05-17T00:54:32.303Z,822.38
2017-05-17T00:54:36.658Z,822.35
2017-05-17T00:54:41.084Z,822.36
2017-05-17T00:54:45.272Z,822.34
2017-05-17T00:54:49.702Z,822.34
2017-05-17T00:54:54.150Z,822.35
2017-05-17T00:54:58.586Z,822.35
2017-05-17T00:55:03.023Z,822.35